sensor_id;sensor_type;location;lat;lon;timestamp;pressure;altitude;pressure_sealevel;temperature;humidity
55418;BME280;41287;47.554;7.844;2022-08-03T00:01:40;98012.84;;;24.71;56.97
55418;BME280;41287;47.554;7.844;2022-08-03T00:04:06;98005.81;;;24.70;57.18
55418;BME280;41287;47.554;7.844;2022-08-03T00:06:32;98005.81;;;24.70;56.91
55418;BME280;41287;47.554;7.844;2022-08-03T00:08:58;98011.31;;;24.70;57.00
55418;BME280;41287;47.554;7.844;2022-08-03T00:11:23;98000.34;;;24.70;57.13
55418;BME280;41287;47.554;7.844;2022-08-03T00:13:49;98002.28;;;24.69;57.61
55418;BME280;41287;47.554;7.844;2022-08-03T00:16:17;98005.81;;;24.70;57.12
55418;BME280;41287;47.554;7.844;2022-08-03T00:18:42;98010.91;;;24.71;56.98
55418;BME280;41287;47.554;7.844;2022-08-03T00:21:10;98003.84;;;24.70;57.13
55418;BME280;41287;47.554;7.844;2022-08-03T00:23:35;98003.06;;;24.70;57.02
55418;BME280;41287;47.554;7.844;2022-08-03T00:26:01;98009.31;;;24.70;57.02
55418;BME280;41287;47.554;7.844;2022-08-03T00:28:28;98000.34;;;24.70;57.08
55418;BME280;41287;47.554;7.844;2022-08-03T00:30:54;97998.34;;;24.70;56.93
55418;BME280;41287;47.554;7.844;2022-08-03T00:33:22;98001.09;;;24.70;57.15
55418;BME280;41287;47.554;7.844;2022-08-03T00:35:47;97999.16;;;24.71;56.93
55418;BME280;41287;47.554;7.844;2022-08-03T00:38:13;98001.09;;;24.70;57.11
55418;BME280;41287;47.554;7.844;2022-08-03T00:40:39;98000.34;;;24.70;57.09
55418;BME280;41287;47.554;7.844;2022-08-03T00:43:05;97999.53;;;24.69;57.05
55418;BME280;41287;47.554;7.844;2022-08-03T00:45:35;98003.06;;;24.70;57.02
55418;BME280;41287;47.554;7.844;2022-08-03T00:48:02;98008.16;;;24.71;56.94
55418;BME280;41287;47.554;7.844;2022-08-03T00:50:32;98001.09;;;24.70;57.05
55418;BME280;41287;47.554;7.844;2022-08-03T00:53:02;98005.81;;;24.70;57.00
55418;BME280;41287;47.554;7.844;2022-08-03T00:55:35;98008.16;;;24.71;57.08
55418;BME280;41287;47.554;7.844;2022-08-03T00:58:02;98006.56;;;24.70;57.09
55418;BME280;41287;47.554;7.844;2022-08-03T01:00:31;98000.34;;;24.70;57.08
55418;BME280;41287;47.554;7.844;2022-08-03T01:02:57;98005.41;;;24.71;57.04
55418;BME280;41287;47.554;7.844;2022-08-03T01:05:22;97998.34;;;24.70;57.00
55418;BME280;41287;47.554;7.844;2022-08-03T01:10:39;98005.03;;;24.69;56.95
55418;BME280;41287;47.554;7.844;2022-08-03T01:16:02;98005.03;;;24.69;57.02
55418;BME280;41287;47.554;7.844;2022-08-03T01:20:56;97998.75;;;24.69;57.00
55418;BME280;41287;47.554;7.844;2022-08-03T01:24:03;98002.28;;;24.69;56.98
55418;BME280;41287;47.554;7.844;2022-08-03T01:26:51;97996.81;;;24.69;57.06
55418;BME280;41287;47.554;7.844;2022-08-03T01:32:18;97995.63;;;24.70;57.01
55418;BME280;41287;47.554;7.844;2022-08-03T01:34:47;97994.84;;;24.70;56.92
55418;BME280;41287;47.554;7.844;2022-08-03T01:37:21;97994.84;;;24.70;57.02
55418;BME280;41287;47.554;7.844;2022-08-03T01:39:51;97994.06;;;24.69;57.08
55418;BME280;41287;47.554;7.844;2022-08-03T01:42:22;97990.53;;;24.69;57.09
55418;BME280;41287;47.554;7.844;2022-08-03T01:44:51;97992.13;;;24.70;57.02
55418;BME280;41287;47.554;7.844;2022-08-03T01:47:19;97986.63;;;24.70;57.05
55418;BME280;41287;47.554;7.844;2022-08-03T01:49:47;97989.75;;;24.68;57.10
55418;BME280;41287;47.554;7.844;2022-08-03T01:52:16;97989.38;;;24.70;56.91
55418;BME280;41287;47.554;7.844;2022-08-03T01:54:44;98002.69;;;24.71;56.96
55418;BME280;41287;47.554;7.844;2022-08-03T01:57:12;97994.84;;;24.70;57.06
55418;BME280;41287;47.554;7.844;2022-08-03T01:59:41;97992.88;;;24.70;57.20
55418;BME280;41287;47.554;7.844;2022-08-03T02:02:07;97989.38;;;24.70;57.20
55418;BME280;41287;47.554;7.844;2022-08-03T02:04:36;97985.84;;;24.69;57.09
55418;BME280;41287;47.554;7.844;2022-08-03T02:07:04;97987.41;;;24.70;57.06
55418;BME280;41287;47.554;7.844;2022-08-03T02:09:31;97986.25;;;24.71;57.18
55418;BME280;41287;47.554;7.844;2022-08-03T02:11:57;97992.88;;;24.70;57.14
55418;BME280;41287;47.554;7.844;2022-08-03T02:14:25;97990.13;;;24.70;56.99
55418;BME280;41287;47.554;7.844;2022-08-03T02:16:54;97996.41;;;24.71;57.05
55418;BME280;41287;47.554;7.844;2022-08-03T02:19:22;97994.84;;;24.70;56.99
55418;BME280;41287;47.554;7.844;2022-08-03T02:21:50;97994.84;;;24.70;57.01
55418;BME280;41287;47.554;7.844;2022-08-03T02:24:17;97999.16;;;24.71;57.19
55418;BME280;41287;47.554;7.844;2022-08-03T02:26:45;97988.19;;;24.71;56.75
55418;BME280;41287;47.554;7.844;2022-08-03T02:29:19;97996.41;;;24.71;56.94
55418;BME280;41287;47.554;7.844;2022-08-03T02:31:47;97997.19;;;24.71;57.07
55418;BME280;41287;47.554;7.844;2022-08-03T02:34:19;97989.75;;;24.72;57.06
55418;BME280;41287;47.554;7.844;2022-08-03T02:36:48;97990.13;;;24.70;57.04
55418;BME280;41287;47.554;7.844;2022-08-03T02:39:16;97991.72;;;24.71;57.11
55418;BME280;41287;47.554;7.844;2022-08-03T02:41:47;97984.66;;;24.70;56.99
55418;BME280;41287;47.554;7.844;2022-08-03T02:44:16;97983.91;;;24.70;57.05
55418;BME280;41287;47.554;7.844;2022-08-03T02:46:44;97973.69;;;24.70;57.12
55418;BME280;41287;47.554;7.844;2022-08-03T02:49:12;97981.91;;;24.70;57.07
55418;BME280;41287;47.554;7.844;2022-08-03T02:51:41;97978.41;;;24.70;57.02
55418;BME280;41287;47.554;7.844;2022-08-03T02:54:08;97982.72;;;24.71;57.00
55418;BME280;41287;47.554;7.844;2022-08-03T02:56:35;97974.50;;;24.71;57.18
55418;BME280;41287;47.554;7.844;2022-08-03T02:59:04;97978.00;;;24.71;57.04
55418;BME280;41287;47.554;7.844;2022-08-03T03:01:31;97983.50;;;24.71;56.92
55418;BME280;41287;47.554;7.844;2022-08-03T03:03:57;97978.41;;;24.70;57.09
55418;BME280;41287;47.554;7.844;2022-08-03T03:06:24;97978.41;;;24.70;57.23
55418;BME280;41287;47.554;7.844;2022-08-03T03:08:51;97981.16;;;24.70;57.12
55418;BME280;41287;47.554;7.844;2022-08-03T03:11:19;97971.75;;;24.71;56.95
55418;BME280;41287;47.554;7.844;2022-08-03T03:13:45;97979.19;;;24.70;56.97
55418;BME280;41287;47.554;7.844;2022-08-03T03:16:13;97979.19;;;24.70;56.92
55418;BME280;41287;47.554;7.844;2022-08-03T03:18:39;97978.41;;;24.70;57.06
55418;BME280;41287;47.554;7.844;2022-08-03T03:21:07;97986.25;;;24.71;56.99
55418;BME280;41287;47.554;7.844;2022-08-03T03:23:39;97981.91;;;24.70;57.02
55418;BME280;41287;47.554;7.844;2022-08-03T03:26:07;97978.41;;;24.70;57.06
55418;BME280;41287;47.554;7.844;2022-08-03T03:28:33;97978.00;;;24.71;57.17
55418;BME280;41287;47.554;7.844;2022-08-03T03:31:01;97979.97;;;24.71;57.05
55418;BME280;41287;47.554;7.844;2022-08-03T03:33:28;97975.69;;;24.70;57.00
55418;BME280;41287;47.554;7.844;2022-08-03T03:35:54;97977.22;;;24.71;57.08
55418;BME280;41287;47.554;7.844;2022-08-03T03:38:19;97977.22;;;24.71;57.09
55418;BME280;41287;47.554;7.844;2022-08-03T03:40:47;97975.69;;;24.70;57.06
55418;BME280;41287;47.554;7.844;2022-08-03T03:43:13;97978.41;;;24.70;57.02
55418;BME280;41287;47.554;7.844;2022-08-03T03:45:42;97979.56;;;24.69;56.95
55418;BME280;41287;47.554;7.844;2022-08-03T03:48:08;97983.91;;;24.70;57.02
55418;BME280;41287;47.554;7.844;2022-08-03T03:50:34;97987.41;;;24.70;57.12
55418;BME280;41287;47.554;7.844;2022-08-03T03:53:01;97979.19;;;24.70;57.09
55418;BME280;41287;47.554;7.844;2022-08-03T03:55:26;97987.03;;;24.72;57.19
55418;BME280;41287;47.554;7.844;2022-08-03T03:57:53;97980.75;;;24.71;57.20
55418;BME280;41287;47.554;7.844;2022-08-03T04:00:21;97989.75;;;24.72;56.72
55418;BME280;41287;47.554;7.844;2022-08-03T04:02:46;97995.66;;;24.74;56.79
55418;BME280;41287;47.554;7.844;2022-08-03T04:05:12;97994.13;;;24.76;56.88
55418;BME280;41287;47.554;7.844;2022-08-03T04:08:02;97993.38;;;24.79;57.96
55418;BME280;41287;47.554;7.844;2022-08-03T04:13:24;97991.84;;;24.86;59.20
55418;BME280;41287;47.554;7.844;2022-08-03T04:15:53;97987.16;;;24.86;59.45
55418;BME280;41287;47.554;7.844;2022-08-03T04:18:20;97986.44;;;24.89;60.80
55418;BME280;41287;47.554;7.844;2022-08-03T04:20:47;97988.78;;;24.91;61.17
55418;BME280;41287;47.554;7.844;2022-08-03T04:23:15;97994.69;;;24.93;62.61
55418;BME280;41287;47.554;7.844;2022-08-03T04:25:41;97997.06;;;24.94;62.91
55418;BME280;41287;47.554;7.844;2022-08-03T04:28:08;97995.53;;;24.97;64.24
55418;BME280;41287;47.554;7.844;2022-08-03T04:30:36;97997.88;;;24.98;64.66
55418;BME280;41287;47.554;7.844;2022-08-03T04:33:03;97989.28;;;25.00;65.44
55418;BME280;41287;47.554;7.844;2022-08-03T04:35:32;98004.19;;;25.02;66.36
55418;BME280;41287;47.554;7.844;2022-08-03T04:38:05;98006.16;;;25.05;64.80
55418;BME280;41287;47.554;7.844;2022-08-03T04:40:36;98008.13;;;25.05;65.97
55418;BME280;41287;47.554;7.844;2022-08-03T04:43:06;98007.75;;;25.06;65.95
55418;BME280;41287;47.554;7.844;2022-08-03T04:45:33;98012.84;;;25.08;66.31
55418;BME280;41287;47.554;7.844;2022-08-03T04:48:02;98010.13;;;25.08;66.76
55418;BME280;41287;47.554;7.844;2022-08-03T04:50:28;98005.06;;;25.10;66.88
55418;BME280;41287;47.554;7.844;2022-08-03T04:52:54;98014.84;;;25.11;66.69
55418;BME280;41287;47.554;7.844;2022-08-03T04:55:30;98006.63;;;25.11;66.10
55418;BME280;41287;47.554;7.844;2022-08-03T04:57:57;98018.00;;;25.13;66.51
55418;BME280;41287;47.554;7.844;2022-08-03T05:00:23;98019.56;;;25.14;67.54
55418;BME280;41287;47.554;7.844;2022-08-03T05:02:51;98012.13;;;25.14;66.97
55418;BME280;41287;47.554;7.844;2022-08-03T05:05:17;98009.03;;;25.16;65.56
55418;BME280;41287;47.554;7.844;2022-08-03T05:07:43;98017.13;;;25.05;59.95
55418;BME280;41287;47.554;7.844;2022-08-03T05:10:09;98009.19;;;24.90;57.47
55418;BME280;41287;47.554;7.844;2022-08-03T05:12:35;98010.19;;;24.78;55.53
55418;BME280;41287;47.554;7.844;2022-08-03T05:15:01;98009.28;;;24.67;54.84
55418;BME280;41287;47.554;7.844;2022-08-03T05:17:28;98012.69;;;24.57;53.92
55418;BME280;41287;47.554;7.844;2022-08-03T05:19:56;98013.81;;;24.49;53.37
55418;BME280;41287;47.554;7.844;2022-08-03T05:22:22;98012.50;;;24.39;53.49
55418;BME280;41287;47.554;7.844;2022-08-03T05:24:48;98015.53;;;24.30;53.32
55418;BME280;41287;47.554;7.844;2022-08-03T05:27:13;98016.63;;;24.22;53.13
55418;BME280;41287;47.554;7.844;2022-08-03T05:29:47;98018.06;;;24.16;53.14
55418;BME280;41287;47.554;7.844;2022-08-03T05:32:13;98023.84;;;24.11;52.85
55418;BME280;41287;47.554;7.844;2022-08-03T05:34:41;98023.41;;;24.06;52.89
55418;BME280;41287;47.554;7.844;2022-08-03T05:37:07;98021.38;;;24.02;53.16
55418;BME280;41287;47.554;7.844;2022-08-03T05:39:33;98020.56;;;23.98;52.80
55418;BME280;41287;47.554;7.844;2022-08-03T05:41:59;98020.53;;;23.95;53.17
55418;BME280;41287;47.554;7.844;2022-08-03T05:44:26;98015.00;;;23.91;53.16
55418;BME280;41287;47.554;7.844;2022-08-03T05:46:53;98013.41;;;23.90;53.41
55418;BME280;41287;47.554;7.844;2022-08-03T05:49:19;98011.03;;;23.89;53.61
55418;BME280;41287;47.554;7.844;2022-08-03T05:51:45;98007.91;;;23.87;53.38
55418;BME280;41287;47.554;7.844;2022-08-03T05:54:12;98011.78;;;23.86;53.15
55418;BME280;41287;47.554;7.844;2022-08-03T05:56:38;98013.75;;;23.85;53.46
55418;BME280;41287;47.554;7.844;2022-08-03T05:59:05;98006.66;;;23.81;53.06
55418;BME280;41287;47.554;7.844;2022-08-03T06:01:32;98006.66;;;23.81;52.83
55418;BME280;41287;47.554;7.844;2022-08-03T06:03:58;98011.34;;;23.80;53.22
55418;BME280;41287;47.554;7.844;2022-08-03T06:06:23;98012.53;;;23.83;53.47
55418;BME280;41287;47.554;7.844;2022-08-03T06:08:50;98008.63;;;23.84;53.57
55418;BME280;41287;47.554;7.844;2022-08-03T06:11:20;98012.16;;;23.84;53.60
55418;BME280;41287;47.554;7.844;2022-08-03T06:13:45;98015.69;;;23.85;53.44
55418;BME280;41287;47.554;7.844;2022-08-03T06:16:11;98006.25;;;23.82;53.32
55418;BME280;41287;47.554;7.844;2022-08-03T06:18:38;98000.84;;;23.86;53.67
55418;BME280;41287;47.554;7.844;2022-08-03T06:21:05;98008.31;;;23.89;54.05
55418;BME280;41287;47.554;7.844;2022-08-03T06:23:31;98009.50;;;23.88;54.06
55418;BME280;41287;47.554;7.844;2022-08-03T06:25:58;98009.09;;;23.89;54.19
55418;BME280;41287;47.554;7.844;2022-08-03T06:28:28;98005.19;;;23.90;54.45
55418;BME280;41287;47.554;7.844;2022-08-03T06:30:54;98001.31;;;23.91;54.30
55418;BME280;41287;47.554;7.844;2022-08-03T06:33:21;98000.16;;;23.92;54.50
55418;BME280;41287;47.554;7.844;2022-08-03T06:35:50;98004.03;;;23.91;54.51
55418;BME280;41287;47.554;7.844;2022-08-03T06:38:15;97998.56;;;23.91;53.99
55418;BME280;41287;47.554;7.844;2022-08-03T06:40:41;97998.56;;;23.91;53.31
55418;BME280;41287;47.554;7.844;2022-08-03T06:43:08;98001.31;;;23.91;53.12
55418;BME280;41287;47.554;7.844;2022-08-03T06:45:34;98003.25;;;23.91;53.00
55418;BME280;41287;47.554;7.844;2022-08-03T06:48:01;98006.78;;;23.91;53.21
55418;BME280;41287;47.554;7.844;2022-08-03T06:50:27;98001.31;;;23.91;52.98
55418;BME280;41287;47.554;7.844;2022-08-03T06:52:53;97998.56;;;23.91;52.60
55418;BME280;41287;47.554;7.844;2022-08-03T06:55:18;97995.84;;;23.91;52.83
55418;BME280;41287;47.554;7.844;2022-08-03T06:57:45;97995.47;;;23.93;52.54
55418;BME280;41287;47.554;7.844;2022-08-03T07:00:11;98000.16;;;23.92;52.72
55418;BME280;41287;47.554;7.844;2022-08-03T07:02:37;98001.75;;;23.93;52.93
55418;BME280;41287;47.554;7.844;2022-08-03T07:05:08;97998.22;;;23.93;52.93
55418;BME280;41287;47.554;7.844;2022-08-03T07:07:34;97999.41;;;23.95;52.62
55418;BME280;41287;47.554;7.844;2022-08-03T07:09:59;98002.56;;;23.97;52.51
55418;BME280;41287;47.554;7.844;2022-08-03T07:12:27;98000.25;;;23.99;52.20
55418;BME280;41287;47.554;7.844;2022-08-03T07:14:54;98004.19;;;24.02;52.09
55418;BME280;41287;47.554;7.844;2022-08-03T07:17:23;97995.22;;;24.01;52.26
55418;BME280;41287;47.554;7.844;2022-08-03T07:19:49;97997.53;;;24.03;52.20
55418;BME280;41287;47.554;7.844;2022-08-03T07:22:14;97992.50;;;24.05;52.10
55418;BME280;41287;47.554;7.844;2022-08-03T07:24:40;97996.44;;;24.08;52.12
55418;BME280;41287;47.554;7.844;2022-08-03T07:27:06;97990.59;;;24.09;52.16
55418;BME280;41287;47.554;7.844;2022-08-03T07:29:33;97990.22;;;24.11;52.05
55418;BME280;41287;47.554;7.844;2022-08-03T07:32:02;97996.13;;;24.13;52.08
55418;BME280;41287;47.554;7.844;2022-08-03T07:34:28;97992.22;;;24.14;52.37
55418;BME280;41287;47.554;7.844;2022-08-03T07:36:53;97993.00;;;24.14;52.54
55418;BME280;41287;47.554;7.844;2022-08-03T07:39:18;97993.00;;;24.14;52.70
55418;BME280;41287;47.554;7.844;2022-08-03T07:41:44;97993.84;;;24.18;52.63
55418;BME280;41287;47.554;7.844;2022-08-03T07:44:10;97994.63;;;24.19;52.87
55418;BME280;41287;47.554;7.844;2022-08-03T07:46:37;97998.97;;;24.20;53.29
55418;BME280;41287;47.554;7.844;2022-08-03T07:49:07;97987.22;;;24.19;53.38
55418;BME280;41287;47.554;7.844;2022-08-03T07:51:32;97988.34;;;24.18;53.47
55418;BME280;41287;47.554;7.844;2022-08-03T07:53:58;98000.09;;;24.19;53.58
55418;BME280;41287;47.554;7.844;2022-08-03T07:56:27;97998.97;;;24.20;53.99
55418;BME280;41287;47.554;7.844;2022-08-03T07:58:53;97995.78;;;24.18;53.65
55418;BME280;41287;47.554;7.844;2022-08-03T08:01:19;98000.09;;;24.19;53.89
55418;BME280;41287;47.554;7.844;2022-08-03T08:03:45;97992.72;;;24.19;53.89
55418;BME280;41287;47.554;7.844;2022-08-03T08:06:11;97998.19;;;24.19;53.77
55418;BME280;41287;47.554;7.844;2022-08-03T08:08:37;97998.19;;;24.19;53.85
55418;BME280;41287;47.554;7.844;2022-08-03T08:11:03;97994.28;;;24.20;53.72
55418;BME280;41287;47.554;7.844;2022-08-03T08:13:28;97995.44;;;24.19;53.98
55418;BME280;41287;47.554;7.844;2022-08-03T08:15:54;97989.97;;;24.19;54.10
55418;BME280;41287;47.554;7.844;2022-08-03T08:18:19;97988.03;;;24.20;54.09
55418;BME280;41287;47.554;7.844;2022-08-03T08:20:46;97985.28;;;24.20;54.22
55418;BME280;41287;47.554;7.844;2022-08-03T08:23:12;97986.88;;;24.21;54.17
55418;BME280;41287;47.554;7.844;2022-08-03T08:25:38;97982.19;;;24.21;54.23
55418;BME280;41287;47.554;7.844;2022-08-03T08:28:04;97985.28;;;24.20;54.28
55418;BME280;41287;47.554;7.844;2022-08-03T08:30:32;97986.88;;;24.21;54.33
55418;BME280;41287;47.554;7.844;2022-08-03T08:32:58;97990.41;;;24.21;54.31
55418;BME280;41287;47.554;7.844;2022-08-03T08:35:23;97980.22;;;24.22;54.17
55418;BME280;41287;47.554;7.844;2022-08-03T08:37:49;97983.75;;;24.22;54.18
55418;BME280;41287;47.554;7.844;2022-08-03T08:40:18;97981.03;;;24.22;54.19
55418;BME280;41287;47.554;7.844;2022-08-03T08:42:44;97974.75;;;24.22;54.27
55418;BME280;41287;47.554;7.844;2022-08-03T08:45:11;97978.28;;;24.22;54.46
55418;BME280;41287;47.554;7.844;2022-08-03T08:47:43;97978.28;;;24.22;54.30
55418;BME280;41287;47.554;7.844;2022-08-03T08:50:10;97976.31;;;24.23;54.62
55418;BME280;41287;47.554;7.844;2022-08-03T08:52:39;97974.38;;;24.23;54.38
55418;BME280;41287;47.554;7.844;2022-08-03T08:55:07;97973.56;;;24.23;54.29
55418;BME280;41287;47.554;7.844;2022-08-03T08:57:35;97972.41;;;24.24;54.43
55418;BME280;41287;47.554;7.844;2022-08-03T09:00:06;97977.88;;;24.24;54.59
55418;BME280;41287;47.554;7.844;2022-08-03T09:02:41;97967.72;;;24.24;54.37
55418;BME280;41287;47.554;7.844;2022-08-03T09:05:10;97972.41;;;24.24;54.54
55418;BME280;41287;47.554;7.844;2022-08-03T09:07:40;97967.72;;;24.24;54.49
55418;BME280;41287;47.554;7.844;2022-08-03T09:10:08;97973.19;;;24.24;54.62
55418;BME280;41287;47.554;7.844;2022-08-03T09:12:43;97968.53;;;24.25;54.52
55418;BME280;41287;47.554;7.844;2022-08-03T09:15:18;97976.72;;;24.25;54.65
55418;BME280;41287;47.554;7.844;2022-08-03T09:17:44;97969.31;;;24.25;54.46
55418;BME280;41287;47.554;7.844;2022-08-03T09:20:10;97975.56;;;24.26;54.50
55418;BME280;41287;47.554;7.844;2022-08-03T09:22:50;97972.03;;;24.25;54.50
55418;BME280;41287;47.554;7.844;2022-08-03T09:25:19;97974.41;;;24.27;54.57
55418;BME280;41287;47.554;7.844;2022-08-03T09:27:52;97968.16;;;24.26;54.75
55418;BME280;41287;47.554;7.844;2022-08-03T09:30:17;97970.88;;;24.26;54.78
55418;BME280;41287;47.554;7.844;2022-08-03T09:32:43;97968.94;;;24.27;54.54
55418;BME280;41287;47.554;7.844;2022-08-03T09:35:11;97967.00;;;24.27;54.80
55418;BME280;41287;47.554;7.844;2022-08-03T09:37:36;97956.03;;;24.27;54.70
55418;BME280;41287;47.554;7.844;2022-08-03T09:40:02;97967.81;;;24.31;53.55
55418;BME280;41287;47.554;7.844;2022-08-03T09:42:30;97968.25;;;24.37;53.50
55418;BME280;41287;47.554;7.844;2022-08-03T09:44:59;97960.88;;;24.41;53.04
55418;BME280;41287;47.554;7.844;2022-08-03T09:47:29;97967.59;;;24.47;52.47
55418;BME280;41287;47.554;7.844;2022-08-03T09:50:04;97969.25;;;24.55;51.54
55418;BME280;41287;47.554;7.844;2022-08-03T09:52:35;97955.59;;;24.59;52.08
55418;BME280;41287;47.554;7.844;2022-08-03T09:55:11;97959.13;;;24.59;52.96
55418;BME280;41287;47.554;7.844;2022-08-03T09:57:37;97958.69;;;24.57;53.06
55418;BME280;41287;47.554;7.844;2022-08-03T10:00:11;97955.56;;;24.55;53.59
55418;BME280;41287;47.554;7.844;2022-08-03T10:02:39;97954.34;;;24.53;53.63
55418;BME280;41287;47.554;7.844;2022-08-03T10:05:05;97946.13;;;24.53;53.71
55418;BME280;41287;47.554;7.844;2022-08-03T10:07:41;97946.50;;;24.51;53.81
55418;BME280;41287;47.554;7.844;2022-08-03T10:10:07;97949.63;;;24.50;53.83
55418;BME280;41287;47.554;7.844;2022-08-03T10:12:35;97948.06;;;24.49;53.79
55418;BME280;41287;47.554;7.844;2022-08-03T10:15:01;97947.28;;;24.48;53.73
55418;BME280;41287;47.554;7.844;2022-08-03T10:17:27;97950.38;;;24.47;53.84
55418;BME280;41287;47.554;7.844;2022-08-03T10:19:52;97955.50;;;24.48;53.86
55418;BME280;41287;47.554;7.844;2022-08-03T10:22:21;97944.09;;;24.46;53.72
55418;BME280;41287;47.554;7.844;2022-08-03T10:25:08;97935.88;;;24.46;53.76
55418;BME280;41287;47.554;7.844;2022-08-03T10:27:39;97941.38;;;24.46;53.72
55418;BME280;41287;47.554;7.844;2022-08-03T10:30:08;97933.53;;;24.45;54.00
55418;BME280;41287;47.554;7.844;2022-08-03T10:32:43;97930.41;;;24.43;53.80
55418;BME280;41287;47.554;7.844;2022-08-03T10:35:14;97933.53;;;24.45;53.92
55418;BME280;41287;47.554;7.844;2022-08-03T10:37:42;97928.03;;;24.45;53.83
55418;BME280;41287;47.554;7.844;2022-08-03T10:40:11;97922.94;;;24.43;53.85
55418;BME280;41287;47.554;7.844;2022-08-03T10:42:40;97917.09;;;24.45;53.86
55418;BME280;41287;47.554;7.844;2022-08-03T10:45:08;97913.16;;;24.42;53.92
55418;BME280;41287;47.554;7.844;2022-08-03T10:47:38;97913.97;;;24.43;53.74
55418;BME280;41287;47.554;7.844;2022-08-03T10:50:04;97908.47;;;24.43;53.80
55418;BME280;41287;47.554;7.844;2022-08-03T10:52:30;97909.25;;;24.43;53.80
55418;BME280;41287;47.554;7.844;2022-08-03T10:54:56;97902.59;;;24.40;53.97
55418;BME280;41287;47.554;7.844;2022-08-03T10:57:54;97906.09;;;24.41;53.82
55418;BME280;41287;47.554;7.844;2022-08-03T11:00:24;97904.16;;;24.42;54.07
55418;BME280;41287;47.554;7.844;2022-08-03T11:03:10;97896.31;;;24.40;53.83
55418;BME280;41287;47.554;7.844;2022-08-03T11:05:43;97894.38;;;24.40;53.89
55418;BME280;41287;47.554;7.844;2022-08-03T11:08:31;97889.25;;;24.39;53.69
55418;BME280;41287;47.554;7.844;2022-08-03T11:16:37;97888.09;;;24.40;53.72
55418;BME280;41287;47.554;7.844;2022-08-03T11:19:13;97881.03;;;24.39;53.94
55418;BME280;41287;47.554;7.844;2022-08-03T11:35:25;97878.69;;;24.37;54.00
55418;BME280;41287;47.554;7.844;2022-08-03T11:40:48;97883.34;;;24.37;53.75
55418;BME280;41287;47.554;7.844;2022-08-03T11:48:27;97875.56;;;24.39;54.10
55418;BME280;41287;47.554;7.844;2022-08-03T11:50:54;97872.03;;;24.38;54.20
55418;BME280;41287;47.554;7.844;2022-08-03T11:53:22;97870.09;;;24.39;54.17
55418;BME280;41287;47.554;7.844;2022-08-03T11:55:47;97870.88;;;24.39;54.07
55418;BME280;41287;47.554;7.844;2022-08-03T11:58:21;97869.66;;;24.37;53.98
55418;BME280;41287;47.554;7.844;2022-08-03T12:00:49;97861.88;;;24.39;53.88
55418;BME280;41287;47.554;7.844;2022-08-03T12:03:17;97864.59;;;24.39;54.09
55418;BME280;41287;47.554;7.844;2022-08-03T12:05:51;97870.09;;;24.39;54.08
55418;BME280;41287;47.554;7.844;2022-08-03T12:10:52;97854.03;;;24.37;54.17
55418;BME280;41287;47.554;7.844;2022-08-03T12:13:18;97861.88;;;24.39;53.95
55418;BME280;41287;47.554;7.844;2022-08-03T12:15:49;97856.41;;;24.39;53.97
55418;BME280;41287;47.554;7.844;2022-08-03T12:18:17;97852.06;;;24.38;54.02
55418;BME280;41287;47.554;7.844;2022-08-03T12:20:43;97859.13;;;24.39;54.27
55418;BME280;41287;47.554;7.844;2022-08-03T12:23:11;97854.81;;;24.38;54.28
55418;BME280;41287;47.554;7.844;2022-08-03T12:25:39;97849.34;;;24.38;54.18
55418;BME280;41287;47.554;7.844;2022-08-03T12:28:19;97838.00;;;24.39;53.93
55418;BME280;41287;47.554;7.844;2022-08-03T12:30:50;97848.56;;;24.37;54.03
55418;BME280;41287;47.554;7.844;2022-08-03T12:33:23;97848.56;;;24.37;54.04
55418;BME280;41287;47.554;7.844;2022-08-03T12:36:02;97843.06;;;24.37;54.24
55418;BME280;41287;47.554;7.844;2022-08-03T12:38:29;97843.13;;;24.41;50.97
55418;BME280;41287;47.554;7.844;2022-08-03T12:40:58;97842.75;;;24.46;52.30
55418;BME280;41287;47.554;7.844;2022-08-03T12:43:24;97838.06;;;24.47;53.14
55418;BME280;41287;47.554;7.844;2022-08-03T12:45:50;97838.06;;;24.47;52.86
55418;BME280;41287;47.554;7.844;2022-08-03T12:48:17;97823.22;;;24.48;52.15
55418;BME280;41287;47.554;7.844;2022-08-03T12:50:43;97835.75;;;24.49;51.05
55418;BME280;41287;47.554;7.844;2022-08-03T12:53:09;97833.81;;;24.53;48.21
55418;BME280;41287;47.554;7.844;2022-08-03T12:55:37;97820.16;;;24.56;50.30
55418;BME280;41287;47.554;7.844;2022-08-03T12:58:06;97827.19;;;24.57;51.34
55418;BME280;41287;47.554;7.844;2022-08-03T13:00:32;97829.56;;;24.55;52.04
55418;BME280;41287;47.554;7.844;2022-08-03T13:05:28;97828.34;;;24.53;52.28
55418;BME280;41287;47.554;7.844;2022-08-03T13:07:54;97822.06;;;24.52;52.63
55418;BME280;41287;47.554;7.844;2022-08-03T13:10:33;97831.44;;;24.51;52.04
55418;BME280;41287;47.554;7.844;2022-08-03T13:12:59;97827.94;;;24.51;52.45
55418;BME280;41287;47.554;7.844;2022-08-03T13:15:27;97827.53;;;24.49;52.31
55418;BME280;41287;47.554;7.844;2022-08-03T13:17:55;97827.53;;;24.49;52.24
55418;BME280;41287;47.554;7.844;2022-08-03T13:20:21;97827.13;;;24.47;52.32
55418;BME280;41287;47.554;7.844;2022-08-03T13:22:49;97816.16;;;24.47;52.02
55418;BME280;41287;47.554;7.844;2022-08-03T13:25:15;97818.50;;;24.45;52.56
55418;BME280;41287;47.554;7.844;2022-08-03T13:27:40;97815.41;;;24.50;50.29
55418;BME280;41287;47.554;7.844;2022-08-03T13:30:06;97819.72;;;24.51;50.16
55418;BME280;41287;47.554;7.844;2022-08-03T13:32:33;97813.84;;;24.52;50.19
55418;BME280;41287;47.554;7.844;2022-08-03T13:34:58;97812.69;;;24.53;50.73
55418;BME280;41287;47.554;7.844;2022-08-03T13:37:24;97806.44;;;24.53;48.43
55418;BME280;41287;47.554;7.844;2022-08-03T13:39:50;97810.75;;;24.57;47.06
55418;BME280;41287;47.554;7.844;2022-08-03T13:42:15;97804.13;;;24.58;49.51
55418;BME280;41287;47.554;7.844;2022-08-03T13:44:43;97799.44;;;24.59;47.79
55418;BME280;41287;47.554;7.844;2022-08-03T13:47:09;97799.06;;;24.60;47.52
55418;BME280;41287;47.554;7.844;2022-08-03T13:49:34;97801.41;;;24.62;48.93
55418;BME280;41287;47.554;7.844;2022-08-03T13:52:00;97797.91;;;24.65;45.90